Time;durP1;ratioP1;P1;durP2;ratioP2;P2;SDS_P1;SDS_P2;PMS_P1;PMS_P2;Temp;Humidity;BMP_temperature;BMP_pressure;BME280_temperature;BME280_humidity;BME280_pressure;Samples;Min_cycle;Max_cycle;Signal;HPM_P1;HPM_P2
2022/06/27 05:54:38;;;;;;;0.00;0.00;;;24.20;96.10;;;;;;5302138;23;20633;-72
2022/06/27 05:57:05;;;;;;;0.00;0.00;;;24.30;95.90;;;;;;4919248;29;20044;-73
2022/06/27 05:59:31;;;;;;;0.00;0.00;;;24.30;95.60;;;;;;4907005;29;20028;-73
2022/06/27 06:01:59;;;;;;;0.00;0.00;;;24.50;95.40;;;;;;4907384;29;20291;-74
2022/06/27 06:04:25;;;;;;;0.00;0.00;;;24.50;95.10;;;;;;4905707;29;20209;-73
2022/06/27 06:06:51;;;;;;;0.00;0.00;;;24.60;94.90;;;;;;4921985;29;20160;-73
2022/06/27 06:09:16;;;;;;;0.00;0.00;;;24.70;94.70;;;;;;4912532;29;20307;-74
2022/06/27 06:11:46;;;;;;;0.00;0.00;;;24.90;94.60;;;;;;4913601;29;20056;-73
2022/06/27 06:14:12;;;;;;;0.00;0.00;;;25.20;94.50;;;;;;4914519;29;20024;-72
2022/06/27 06:16:38;;;;;;;0.00;0.00;;;25.80;94.00;;;;;;4906631;29;20274;-71
2022/06/27 06:19:04;;;;;;;0.00;0.00;;;26.30;92.80;;;;;;4907076;29;20043;-71
2022/06/27 06:21:30;;;;;;;0.00;0.00;;;27.00;92.40;;;;;;4909006;29;20066;-72
2022/06/27 06:23:57;;;;;;;0.00;0.00;;;27.60;91.20;;;;;;4912039;29;20295;-72
2022/06/27 06:26:24;;;;;;;0.00;0.00;;;28.40;90.20;;;;;;4914604;29;20027;-73
2022/06/27 06:28:49;;;;;;;0.00;0.00;;;28.90;86.00;;;;;;4916934;29;20037;-73
2022/06/27 06:31:21;;;;;;;0.00;0.00;;;29.40;84.40;;;;;;4915032;29;20075;-73
2022/06/27 06:33:50;;;;;;;0.00;0.00;;;29.80;82.70;;;;;;4906716;29;20013;-72
2022/06/27 06:36:16;;;;;;;0.00;0.00;;;30.20;81.60;;;;;;4893137;29;20116;-73
2022/06/27 06:38:42;;;;;;;0.00;0.00;;;30.60;79.80;;;;;;4896827;29;20216;-72
2022/06/27 06:41:08;;;;;;;0.00;0.00;;;31.00;78.50;;;;;;4888801;29;20016;-73
2022/06/27 06:43:34;;;;;;;0.00;0.00;;;31.30;77.20;;;;;;4884376;29;20056;-78
2022/06/27 06:46:00;;;;;;;0.00;0.00;;;31.80;76.50;;;;;;4887792;29;20065;-72
2022/06/27 06:48:25;;;;;;;0.00;0.00;;;32.40;74.00;;;;;;4886135;29;20028;-73
2022/06/27 06:50:54;;;;;;;0.00;0.00;;;32.60;72.20;;;;;;4889298;29;20799;-72
2022/06/27 06:53:20;;;;;;;0.00;0.00;;;32.80;70.70;;;;;;4881470;29;20307;-72
2022/06/27 06:55:45;;;;;;;0.00;0.00;;;32.70;70.70;;;;;;4895844;29;20052;-73
2022/06/27 06:58:11;;;;;;;0.00;0.00;;;32.90;70.70;;;;;;4886661;29;20042;-74
2022/06/27 07:00:38;;;;;;;0.00;0.00;;;33.60;69.60;;;;;;4905584;29;20028;-73
2022/06/27 07:03:04;;;;;;;0.00;0.00;;;34.20;68.90;;;;;;4904521;29;20036;-74
2022/06/27 07:05:31;;;;;;;0.00;0.00;;;34.70;67.10;;;;;;4885410;29;20447;-74
2022/06/27 07:08:00;;;;;;;0.00;0.00;;;35.10;65.00;;;;;;4902530;29;20036;-74
2022/06/27 07:10:26;;;;;;;0.00;0.00;;;35.30;64.20;;;;;;4903647;29;20044;-73
2022/06/27 07:12:52;;;;;;;0.00;0.00;;;35.50;63.30;;;;;;4904284;29;20295;-72
2022/06/27 07:15:17;;;;;;;0.00;0.00;;;35.90;63.10;;;;;;4904686;29;20067;-76
2022/06/27 07:17:46;;;;;;;0.00;0.00;;;36.00;62.10;;;;;;4906528;29;20033;-74
2022/06/27 07:20:13;;;;;;;0.00;0.00;;;35.70;61.40;;;;;;4907606;29;20028;-76
2022/06/27 07:22:40;;;;;;;0.00;0.00;;;35.70;61.70;;;;;;4891838;29;20016;-76
2022/06/27 07:25:07;;;;;;;0.00;0.00;;;35.60;61.60;;;;;;4908114;29;20031;-75
2022/06/27 07:27:34;;;;;;;0.00;0.00;;;35.40;61.30;;;;;;4892219;29;20028;-73
2022/06/27 07:30:01;;;;;;;0.00;0.00;;;34.50;62.40;;;;;;4909432;29;20088;-75
2022/06/27 07:32:27;;;;;;;0.00;0.00;;;34.00;64.10;;;;;;4908259;29;20060;-75
2022/06/27 07:34:54;;;;;;;0.00;0.00;;;33.40;64.80;;;;;;4910841;29;20914;-74
2022/06/27 07:37:20;;;;;;;0.00;0.00;;;32.70;65.70;;;;;;4908100;29;20016;-73
2022/06/27 07:39:47;;;;;;;0.00;0.00;;;32.20;66.70;;;;;;4893933;29;20039;-74
2022/06/27 07:42:14;;;;;;;0.00;0.00;;;32.00;67.60;;;;;;4915431;29;20074;-75
2022/06/27 07:44:41;;;;;;;0.00;0.00;;;31.60;68.50;;;;;;4913254;29;20048;-74
2022/06/27 07:47:07;;;;;;;0.00;0.00;;;31.40;68.30;;;;;;4891273;29;20257;-75
2022/06/27 07:49:33;;;;;;;0.00;0.00;;;31.00;69.70;;;;;;4893746;29;20040;-75
2022/06/27 07:51:59;;;;;;;0.00;0.00;;;30.60;70.30;;;;;;4908445;29;20033;-72
2022/06/27 07:54:26;;;;;;;0.00;0.00;;;30.60;71.10;;;;;;4907718;29;20056;-73
2022/06/27 07:56:53;;;;;;;0.00;0.00;;;30.60;70.60;;;;;;4908778;29;20035;-73
2022/06/27 07:59:19;;;;;;;0.00;0.00;;;30.80;70.10;;;;;;4910577;29;20036;-74
2022/06/27 08:01:45;;;;;;;0.00;0.00;;;31.00;70.30;;;;;;4897462;29;20123;-73
2022/06/27 08:04:12;;;;;;;0.00;0.00;;;31.60;69.90;;;;;;4900878;29;20025;-73
2022/06/27 08:06:37;;;;;;;0.00;0.00;;;32.50;68.40;;;;;;4892507;29;20020;-74
2022/06/27 08:09:05;;;;;;;0.00;0.00;;;33.50;66.20;;;;;;4907575;29;20292;-73
2022/06/27 08:11:33;;;;;;;0.00;0.00;;;34.60;64.10;;;;;;4909941;29;20032;-73
2022/06/27 08:14:03;;;;;;;0.00;0.00;;;35.60;61.90;;;;;;4903236;29;20039;-73
2022/06/27 08:16:30;;;;;;;0.00;0.00;;;36.30;60.30;;;;;;4908954;29;20817;-73
2022/06/27 08:18:56;;;;;;;0.00;0.00;;;37.50;58.50;;;;;;4903864;29;20043;-73
2022/06/27 08:21:25;;;;;;;0.00;0.00;;;38.40;56.60;;;;;;4907030;29;20025;-73
2022/06/27 08:23:58;;;;;;;0.00;0.00;;;38.40;55.20;;;;;;4907077;29;20029;-74
2022/06/27 08:26:25;;;;;;;0.00;0.00;;;38.30;54.80;;;;;;4906298;29;20517;-74
2022/06/27 08:28:52;;;;;;;0.00;0.00;;;38.30;54.60;;;;;;4910224;29;20310;-74
2022/06/27 08:31:18;;;;;;;0.00;0.00;;;38.30;55.40;;;;;;4906362;29;20082;-74
2022/06/27 08:33:46;;;;;;;0.00;0.00;;;39.00;54.10;;;;;;4907474;29;20033;-74
2022/06/27 08:36:14;;;;;;;0.00;0.00;;;39.10;54.00;;;;;;4899349;29;20279;-76
2022/06/27 08:38:46;;;;;;;0.00;0.00;;;39.80;53.10;;;;;;4908151;29;20127;-75
2022/06/27 08:41:12;;;;;;;0.00;0.00;;;39.50;52.50;;;;;;4907056;29;20088;-77
2022/06/27 08:43:38;;;;;;;0.00;0.00;;;40.10;51.90;;;;;;4907108;29;20278;-76
2022/06/27 08:46:06;;;;;;;0.00;0.00;;;40.50;51.20;;;;;;4907049;29;20326;-76
2022/06/27 08:48:33;;;;;;;0.00;0.00;;;40.90;50.30;;;;;;4905815;29;20028;-76
2022/06/27 08:51:02;;;;;;;0.00;0.00;;;41.00;50.30;;;;;;4904257;29;20324;-73
2022/06/27 08:53:28;;;;;;;0.00;0.00;;;41.00;50.10;;;;;;4896440;29;20040;-77
2022/06/27 08:55:55;;;;;;;0.00;0.00;;;41.90;49.70;;;;;;4889817;29;20215;-76
2022/06/27 08:58:23;;;;;;;0.00;0.00;;;42.20;47.70;;;;;;4905901;29;20322;-77
2022/06/27 09:00:49;;;;;;;0.00;0.00;;;42.20;47.70;;;;;;4904419;29;20140;-77
2022/06/27 09:03:24;;;;;;;0.00;0.00;;;42.70;47.40;;;;;;4908345;29;20655;-76
2022/06/27 09:06:16;;;;;;;0.00;0.00;;;43.90;47.10;;;;;;4903533;29;20072;-75
2022/06/27 09:09:06;;;;;;;0.00;0.00;;;44.50;46.50;;;;;;4896318;29;20055;-75
2022/06/27 09:11:35;;;;;;;0.00;0.00;;;45.00;44.60;;;;;;4906320;29;20115;-75
2022/06/27 09:14:03;;;;;;;0.00;0.00;;;44.70;43.70;;;;;;4895902;29;20037;-76
2022/06/27 09:16:30;;;;;;;0.00;0.00;;;45.00;44.40;;;;;;4904908;29;20076;-77
2022/06/27 09:18:56;;;;;;;0.00;0.00;;;44.70;43.90;;;;;;4906699;29;20035;-77
2022/06/27 09:21:22;;;;;;;0.00;0.00;;;45.00;44.40;;;;;;4887923;29;20119;-77
2022/06/27 09:24:00;;;;;;;0.00;0.00;;;44.60;44.30;;;;;;4890179;29;20320;-76
2022/06/27 09:26:38;;;;;;;0.00;0.00;;;45.00;43.80;;;;;;4905968;29;20325;-77
2022/06/27 09:29:11;;;;;;;0.00;0.00;;;44.70;43.40;;;;;;4905932;29;20043;-77
2022/06/27 09:31:48;;;;;;;0.00;0.00;;;44.30;43.40;;;;;;4907660;29;20043;-75
2022/06/27 09:34:14;;;;;;;0.00;0.00;;;44.00;43.70;;;;;;4912261;29;20307;-77
2022/06/27 09:36:53;;;;;;;0.00;0.00;;;44.40;43.90;;;;;;4909489;29;20059;-76
2022/06/27 09:39:38;;;;;;;0.00;0.00;;;44.90;43.20;;;;;;4890600;29;20027;-76
2022/06/27 09:42:04;;;;;;;;;;;44.20;42.80;;;;;;4908296;29;20321;-76
2022/06/27 09:44:35;;;;;;;0.00;0.00;;;43.00;43.80;;;;;;4907987;29;19929;-77
2022/06/27 09:47:17;;;;;;;0.00;0.00;;;43.20;43.90;;;;;;4907506;29;20032;-77
2022/06/27 09:49:46;;;;;;;0.00;0.00;;;43.10;43.90;;;;;;4889800;29;20059;-73
2022/06/27 09:52:14;;;;;;;0.00;0.00;;;43.20;44.20;;;;;;4884730;29;20429;-77
2022/06/27 09:54:42;;;;;;;0.00;0.00;;;44.10;44.70;;;;;;4902696;29;20052;-77
2022/06/27 09:57:10;;;;;;;0.00;0.00;;;45.00;43.10;;;;;;4912026;29;20070;-77
2022/06/27 09:59:37;;;;;;;0.00;0.00;;;44.40;42.40;;;;;;4891105;29;20083;-77
2022/06/27 10:02:07;;;;;;;0.00;0.00;;;44.70;42.90;;;;;;4905288;29;20051;-76
2022/06/27 10:04:35;;;;;;;0.00;0.00;;;45.70;42.10;;;;;;4908832;29;20063;-77
2022/06/27 10:07:02;;;;;;;0.00;0.00;;;45.20;41.40;;;;;;4904686;29;20092;-76
2022/06/27 10:09:30;;;;;;;0.00;0.00;;;45.50;41.80;;;;;;4896295;29;20036;-77
2022/06/27 10:12:22;;;;;;;0.00;0.00;;;45.70;41.20;;;;;;4903302;29;20061;-78
2022/06/27 10:15:10;;;;;;;0.00;0.00;;;45.90;40.30;;;;;;4907810;29;20307;-78
2022/06/27 10:17:38;;;;;;;0.00;0.00;;;46.00;40.60;;;;;;4903269;29;20077;-78
2022/06/27 10:20:26;;;;;;;0.00;0.00;;;46.50;40.40;;;;;;4903277;29;20024;-75
2022/06/27 10:23:26;;;;;;;0.00;0.00;;;46.80;40.10;;;;;;4903950;29;20313;-77
2022/06/27 10:25:53;;;;;;;0.00;0.00;;;46.70;40.00;;;;;;4908487;29;20028;-77
2022/06/27 10:28:22;;;;;;;0.00;0.00;;;47.10;39.60;;;;;;4902823;29;20030;-77
2022/06/27 10:31:15;;;;;;;0.00;0.00;;;46.80;39.80;;;;;;4901920;29;20250;-78
2022/06/27 10:33:48;;;;;;;0.00;0.00;;;46.80;39.60;;;;;;4911387;29;20025;-78
2022/06/27 10:36:16;;;;;;;0.00;0.00;;;46.50;39.30;;;;;;4895429;29;20206;-76
2022/06/27 10:38:50;;;;;;;0.00;0.00;;;47.30;39.30;;;;;;4909577;29;20024;-77
2022/06/27 10:41:19;;;;;;;0.00;0.00;;;47.10;38.90;;;;;;4892087;29;20071;-76
2022/06/27 10:43:53;;;;;;;0.00;0.00;;;47.70;38.80;;;;;;4908804;29;20021;-78
2022/06/27 10:46:18;;;;;;;0.00;0.00;;;47.40;37.80;;;;;;4906949;29;20036;-79
2022/06/27 10:48:50;;;;;;;0.00;0.00;;;46.90;38.20;;;;;;4907152;29;20079;-79
2022/06/27 10:51:26;;;;;;;0.00;0.00;;;46.90;38.40;;;;;;4907755;29;20024;-78
2022/06/27 10:53:52;;;;;;;0.00;0.00;;;47.60;38.30;;;;;;4903576;29;20032;-78
2022/06/27 10:56:34;;;;;;;0.00;0.00;;;48.50;37.90;;;;;;4908945;29;20031;-77
2022/06/27 10:59:03;;;;;;;0.00;0.00;;;48.20;37.60;;;;;;4907320;29;20020;-77
2022/06/27 11:01:30;;;;;;;0.00;0.00;;;48.10;37.40;;;;;;4908097;29;20028;-78
2022/06/27 11:03:56;;;;;;;0.00;0.00;;;47.60;37.20;;;;;;4906034;29;20037;-78
2022/06/27 11:06:22;;;;;;;0.00;0.00;;;46.70;37.10;;;;;;4910805;29;20088;-77
2022/06/27 11:08:50;;;;;;;0.00;0.00;;;46.70;37.40;;;;;;4893043;29;20040;-77
2022/06/27 11:11:23;;;;;;;0.00;0.00;;;46.10;38.10;;;;;;4895926;29;20029;-77
2022/06/27 11:13:57;;;;;;;0.00;0.00;;;46.50;37.90;;;;;;4894918;29;20021;-78
2022/06/27 11:16:32;;;;;;;0.00;0.00;;;45.80;38.40;;;;;;4894063;29;20334;-78
2022/06/27 11:20:04;;;;;;;0.00;0.00;;;45.10;38.80;;;;;;4906798;29;20034;-78
2022/06/27 11:21:53;;;;;;;0.00;0.00;;;45.60;38.60;;;;;;4902761;29;20116;-76
2022/06/27 11:24:18;;;;;;;0.00;0.00;;;45.80;38.30;;;;;;4906648;29;20020;-77
2022/06/27 11:26:49;;;;;;;0.00;0.00;;;45.50;38.10;;;;;;4907026;29;20020;-78
2022/06/27 11:32:11;;;;;;;0.00;0.00;;;44.40;38.70;;;;;;4910730;29;20043;-79
2022/06/27 11:34:49;;;;;;;0.00;0.00;;;43.80;39.00;;;;;;4905129;29;20023;-79
2022/06/27 11:37:19;;;;;;;0.00;0.00;;;44.10;39.50;;;;;;4903684;29;20361;-78
2022/06/27 11:40:08;;;;;;;0.00;0.00;;;43.60;39.10;;;;;;4905953;29;20039;-79
2022/06/27 11:42:39;;;;;;;0.00;0.00;;;41.90;40.20;;;;;;4900355;29;20092;-77
2022/06/27 11:45:08;;;;;;;0.00;0.00;;;41.00;41.40;;;;;;4896461;29;20016;-76
2022/06/27 11:47:36;;;;;;;0.00;0.00;;;40.30;42.50;;;;;;4909680;29;20691;-77
2022/06/27 11:50:13;;;;;;;0.00;0.00;;;39.50;43.30;;;;;;4890291;29;20024;-79
2022/06/27 11:52:45;;;;;;;0.00;0.00;;;38.50;43.80;;;;;;4912313;29;20067;-78
2022/06/27 11:55:12;;;;;;;0.00;0.00;;;38.00;45.10;;;;;;4909667;29;20287;-78
2022/06/27 11:57:54;;;;;;;0.00;0.00;;;37.50;45.70;;;;;;4912017;29;20027;-78
2022/06/27 12:00:33;;;;;;;0.00;0.00;;;37.00;46.40;;;;;;4908603;29;20035;-80
2022/06/27 12:02:58;;;;;;;0.00;0.00;;;36.40;47.20;;;;;;4908018;29;20028;-80
2022/06/27 12:05:25;;;;;;;0.00;0.00;;;36.00;47.90;;;;;;4905553;29;20055;-78
2022/06/27 12:07:58;;;;;;;0.00;0.00;;;35.80;47.80;;;;;;4913565;29;20031;-78
2022/06/27 12:10:36;;;;;;;0.00;0.00;;;35.40;48.30;;;;;;4911622;29;20055;-78
2022/06/27 12:13:06;;;;;;;0.00;0.00;;;35.00;49.40;;;;;;4908528;29;20096;-78
2022/06/27 12:15:33;;;;;;;0.00;0.00;;;34.90;49.90;;;;;;4916679;29;20043;-76
2022/06/27 12:18:00;;;;;;;0.00;0.00;;;34.90;49.90;;;;;;4906598;29;20017;-78
2022/06/27 12:20:27;;;;;;;;;;;34.80;50.10;;;;;;4906270;29;20029;-78
2022/06/27 12:22:53;;;;;;;0.00;0.00;;;34.80;50.50;;;;;;4907166;29;19915;-76
2022/06/27 12:25:20;;;;;;;0.00;0.00;;;34.70;50.20;;;;;;4907296;29;20300;-79
2022/06/27 12:27:46;;;;;;;0.00;0.00;;;34.70;50.30;;;;;;4906224;29;20196;-77
2022/06/27 12:30:13;;;;;;;0.00;0.00;;;34.50;50.60;;;;;;4910562;29;20144;-78
2022/06/27 12:32:39;;;;;;;0.00;0.00;;;34.50;50.50;;;;;;4899197;29;20032;-78
2022/06/27 12:35:05;;;;;;;0.00;0.00;;;34.40;50.70;;;;;;4900730;29;20048;-77
2022/06/27 12:37:33;;;;;;;0.00;0.00;;;34.40;50.80;;;;;;4911896;29;20188;-78
2022/06/27 12:39:59;;;;;;;0.00;0.00;;;34.40;50.80;;;;;;4912676;29;20080;-77
2022/06/27 12:42:24;;;;;;;0.00;0.00;;;34.40;50.60;;;;;;4909065;29;20021;-77
2022/06/27 12:44:50;;;;;;;0.00;0.00;;;34.40;50.70;;;;;;4908309;29;20039;-78
2022/06/27 12:47:15;;;;;;;0.00;0.00;;;34.40;50.70;;;;;;4905277;29;20036;-77
2022/06/27 12:49:41;;;;;;;0.00;0.00;;;34.30;50.50;;;;;;4907460;29;20347;-78
2022/06/27 12:52:07;;;;;;;0.00;0.00;;;34.30;50.90;;;;;;4907110;29;20271;-79
2022/06/27 12:54:33;;;;;;;0.00;0.00;;;34.30;51.10;;;;;;4907046;29;20072;-77
2022/06/27 12:57:00;;;;;;;0.00;0.00;;;34.30;51.50;;;;;;4911937;29;20104;-76
2022/06/27 12:59:26;;;;;;;0.00;0.00;;;34.40;51.20;;;;;;4913175;29;20024;-77
2022/06/27 13:01:52;;;;;;;0.00;0.00;;;34.40;52.00;;;;;;4908129;29;20327;-77
2022/06/27 13:04:18;;;;;;;0.00;0.00;;;34.30;51.00;;;;;;4911442;29;20357;-78
2022/06/27 13:06:43;;;;;;;0.00;0.00;;;34.20;51.20;;;;;;4910885;29;20027;-79
2022/06/27 13:09:09;;;;;;;0.00;0.00;;;34.30;51.40;;;;;;4907552;29;20080;-77
2022/06/27 13:11:35;;;;;;;0.00;0.00;;;34.30;51.50;;;;;;4889985;29;20027;-77
2022/06/27 13:14:00;;;;;;;0.00;0.00;;;34.30;51.50;;;;;;4910656;29;20095;-78
2022/06/27 13:16:26;;;;;;;0.00;0.00;;;34.30;51.50;;;;;;4916630;29;20321;-77
2022/06/27 13:18:52;;;;;;;0.00;0.00;;;34.30;51.80;;;;;;4894552;29;20112;-76
2022/06/27 13:21:18;;;;;;;0.00;0.00;;;34.30;51.80;;;;;;4915675;29;20024;-75
2022/06/27 13:23:43;;;;;;;0.00;0.00;;;34.30;51.40;;;;;;4907829;29;20078;-75
2022/06/27 13:26:09;;;;;;;0.00;0.00;;;34.30;51.50;;;;;;4895864;29;20016;-76
2022/06/27 13:28:35;;;;;;;0.00;0.00;;;34.30;51.50;;;;;;4908948;29;20028;-74
2022/06/27 13:31:00;;;;;;;0.00;0.00;;;34.30;51.80;;;;;;4906353;29;20016;-76
2022/06/27 13:33:26;;;;;;;0.00;0.00;;;34.30;51.50;;;;;;4908498;29;20028;-77
2022/06/27 13:35:52;;;;;;;0.00;0.00;;;34.20;52.00;;;;;;4908961;29;20031;-76
2022/06/27 13:38:18;;;;;;;0.00;0.00;;;34.10;52.20;;;;;;4906325;29;20033;-77
2022/06/27 13:40:43;;;;;;;0.00;0.00;;;34.10;52.20;;;;;;4908013;29;20035;-78
2022/06/27 13:43:09;;;;;;;0.00;0.00;;;34.10;51.50;;;;;;4910038;29;20047;-76
2022/06/27 13:45:35;;;;;;;0.00;0.00;;;34.10;52.00;;;;;;4910481;29;20041;-73
2022/06/27 13:48:01;;;;;;;0.00;0.00;;;34.10;52.40;;;;;;4911464;29;20317;-76
2022/06/27 13:50:28;;;;;;;0.00;0.00;;;34.20;52.20;;;;;;4912262;29;20029;-76
2022/06/27 13:52:54;;;;;;;0.00;0.00;;;34.20;52.30;;;;;;4906887;29;20040;-75
2022/06/27 13:55:20;;;;;;;0.00;0.00;;;34.20;52.50;;;;;;4908376;29;20059;-76
2022/06/27 13:57:46;;;;;;;0.00;0.00;;;34.20;52.80;;;;;;4910692;29;20029;-75
2022/06/27 14:00:12;;;;;;;0.00;0.00;;;34.30;52.70;;;;;;4905898;29;20044;-76
2022/06/27 14:02:39;;;;;;;0.00;0.00;;;34.30;52.60;;;;;;4907367;29;20020;-75
2022/06/27 14:05:05;;;;;;;0.00;0.00;;;34.20;52.60;;;;;;4906025;29;20035;-77
2022/06/27 14:07:40;;;;;;;0.00;0.00;;;34.20;52.90;;;;;;4909068;29;20311;-77
2022/06/27 14:10:11;;;;;;;0.00;0.00;;;34.20;52.90;;;;;;4890013;29;20361;-76
2022/06/27 14:12:38;;;;;;;0.00;0.00;;;34.20;53.10;;;;;;4907395;29;20118;-75
2022/06/27 14:15:04;;;;;;;0.00;0.00;;;34.20;52.60;;;;;;4907282;29;20119;-75
2022/06/27 14:17:30;;;;;;;0.00;0.00;;;34.20;53.00;;;;;;4886510;29;20040;-77
2022/06/27 14:19:56;;;;;;;0.00;0.00;;;34.10;52.90;;;;;;4904634;29;20024;-75
2022/06/27 14:22:21;;;;;;;0.00;0.00;;;34.20;53.10;;;;;;4908661;29;20063;-77
2022/06/27 14:24:47;;;;;;;0.00;0.00;;;34.20;52.70;;;;;;4908180;29;20431;-76
2022/06/27 14:27:13;;;;;;;0.00;0.00;;;34.20;52.90;;;;;;4908483;29;20337;-79
2022/06/27 14:29:39;;;;;;;0.00;0.00;;;34.10;53.10;;;;;;4891405;29;20051;-76
2022/06/27 14:32:06;;;;;;;0.00;0.00;;;34.10;53.30;;;;;;4905993;29;20024;-74
2022/06/27 14:34:32;;;;;;;0.00;0.00;;;34.00;53.00;;;;;;4906455;29;20021;-77
2022/06/27 14:36:58;;;;;;;0.00;0.00;;;34.00;53.00;;;;;;4907733;29;20045;-75
2022/06/27 14:39:23;;;;;;;0.00;0.00;;;34.10;53.20;;;;;;4890574;29;20111;-76
2022/06/27 14:41:50;;;;;;;0.00;0.00;;;34.10;53.10;;;;;;4905562;29;20020;-77
2022/06/27 14:44:16;;;;;;;0.00;0.00;;;34.10;53.00;;;;;;4908946;29;20036;-77
2022/06/27 14:46:41;;;;;;;0.00;0.00;;;34.20;53.00;;;;;;4907693;29;20239;-77
2022/06/27 14:49:07;;;;;;;0.00;0.00;;;34.20;52.90;;;;;;4905095;29;20215;-78
2022/06/27 14:51:34;;;;;;;0.00;0.00;;;34.20;53.00;;;;;;4909161;29;20123;-76
2022/06/27 14:54:00;;;;;;;0.00;0.00;;;34.20;52.90;;;;;;4870546;29;1136459;-75
2022/06/27 14:56:26;;;;;;;0.00;0.00;;;34.10;53.20;;;;;;4905165;29;20115;-74
2022/06/27 14:58:52;;;;;;;0.00;0.00;;;34.10;53.00;;;;;;4892363;29;20167;-76
2022/06/27 15:01:18;;;;;;;0.00;0.00;;;34.10;52.80;;;;;;4908973;29;20117;-76
2022/06/27 15:03:44;;;;;;;0.00;0.00;;;34.10;52.90;;;;;;4904459;29;20315;-76
2022/06/27 15:06:09;;;;;;;0.00;0.00;;;34.00;52.90;;;;;;4907001;29;20083;-76
2022/06/27 15:08:36;;;;;;;0.00;0.00;;;34.10;53.30;;;;;;4890428;29;20032;-74
2022/06/27 15:13:47;;;;;;;0.00;0.00;;;34.30;52.90;;;;;;4907938;29;20276;-74
2022/06/27 15:16:12;;;;;;;0.00;0.00;;;34.40;52.60;;;;;;4912425;29;20099;-75
2022/06/27 15:18:38;;;;;;;0.00;0.00;;;34.50;52.80;;;;;;4907505;29;20039;-75
2022/06/27 15:21:04;;;;;;;0.00;0.00;;;34.40;53.00;;;;;;4903341;29;20087;-76
2022/06/27 15:23:29;;;;;;;0.00;0.00;;;34.30;53.00;;;;;;4890202;29;20047;-76
2022/06/27 15:25:55;;;;;;;0.00;0.00;;;34.20;53.00;;;;;;4910646;29;20035;-75
2022/06/27 15:28:21;;;;;;;0.00;0.00;;;34.00;53.20;;;;;;4891611;29;20050;-75
2022/06/27 15:30:47;;;;;;;0.00;0.00;;;34.00;53.40;;;;;;4907981;29;20219;-76
2022/06/27 15:33:13;;;;;;;0.00;0.00;;;33.90;53.80;;;;;;4894914;29;20043;-77
2022/06/27 15:35:38;;;;;;;0.00;0.00;;;33.90;53.60;;;;;;4912007;29;20016;-77
2022/06/27 15:38:04;;;;;;;0.00;0.00;;;33.90;53.70;;;;;;4896374;29;20024;-75
2022/06/27 15:40:30;;;;;;;0.00;0.00;;;33.80;54.10;;;;;;4908259;29;20784;-78
2022/06/27 15:42:56;;;;;;;0.00;0.00;;;33.80;54.30;;;;;;4894286;29;20356;-77
2022/06/27 15:45:22;;;;;;;0.00;0.00;;;33.80;54.40;;;;;;4894433;29;20256;-77
2022/06/27 15:47:48;;;;;;;0.00;0.00;;;33.80;54.00;;;;;;4906044;29;20028;-76
2022/06/27 15:50:14;;;;;;;0.00;0.00;;;33.80;54.20;;;;;;4903237;29;20052;-78
2022/06/27 15:52:40;;;;;;;0.00;0.00;;;33.70;54.20;;;;;;4917468;29;20180;-78
2022/06/27 15:55:08;;;;;;;0.00;0.00;;;33.80;54.40;;;;;;4911828;29;20060;-77
2022/06/27 15:57:34;;;;;;;0.00;0.00;;;33.90;54.30;;;;;;4916110;29;20035;-77
2022/06/27 16:00:03;;;;;;;0.00;0.00;;;34.00;54.30;;;;;;4894994;29;20036;-76
2022/06/27 16:02:29;;;;;;;0.00;0.00;;;34.00;54.20;;;;;;4915133;29;20039;-78
2022/06/27 16:04:54;;;;;;;0.00;0.00;;;34.00;54.30;;;;;;4899031;29;20199;-77
2022/06/27 16:07:20;;;;;;;0.00;0.00;;;33.90;54.40;;;;;;4908020;29;20099;-78
2022/06/27 16:09:46;;;;;;;0.00;0.00;;;33.80;54.50;;;;;;4912338;29;20048;-76
2022/06/27 16:12:11;;;;;;;0.00;0.00;;;33.80;54.70;;;;;;4909972;29;20020;-77
2022/06/27 16:14:37;;;;;;;0.00;0.00;;;33.60;54.80;;;;;;4914405;29;20469;-79
2022/06/27 16:17:03;;;;;;;0.00;0.00;;;33.50;54.90;;;;;;4910738;29;20029;-76
2022/06/27 16:19:28;;;;;;;0.00;0.00;;;33.50;55.20;;;;;;4894280;29;20362;-79
2022/06/27 16:21:54;;;;;;;0.00;0.00;;;33.40;55.10;;;;;;4893323;29;20212;-77
2022/06/27 16:24:20;;;;;;;0.00;0.00;;;33.40;55.30;;;;;;4906542;29;20016;-78
2022/06/27 16:26:45;;;;;;;0.00;0.00;;;33.30;55.50;;;;;;4909286;29;20020;-77
2022/06/27 16:29:11;;;;;;;0.00;0.00;;;33.20;55.70;;;;;;4912199;29;20096;-79
2022/06/27 16:31:39;;;;;;;0.00;0.00;;;33.20;55.90;;;;;;4907210;29;20104;-77
2022/06/27 16:34:10;;;;;;;0.00;0.00;;;33.20;56.00;;;;;;4910025;29;20067;-78
2022/06/27 16:36:36;;;;;;;0.00;0.00;;;33.20;56.10;;;;;;4897611;29;20286;-78
2022/06/27 16:39:02;;;;;;;0.00;0.00;;;33.10;56.00;;;;;;4909497;29;20068;-76
2022/06/27 16:43:13;;;;;;;0.00;0.00;;;33.10;56.40;;;;;;4910506;29;20023;-77
2022/06/27 16:44:13;;;;;;;0.00;0.00;;;33.00;56.50;;;;;;4908660;29;20028;-77
2022/06/27 16:46:39;;;;;;;0.00;0.00;;;33.00;56.80;;;;;;4911184;29;20091;-77
2022/06/27 16:49:05;;;;;;;0.00;0.00;;;32.90;56.70;;;;;;4911011;29;20041;-76
2022/06/27 16:51:31;;;;;;;0.00;0.00;;;32.90;56.80;;;;;;4907378;29;20036;-76
2022/06/27 16:53:58;;;;;;;0.00;0.00;;;32.90;56.70;;;;;;4893238;29;20020;-84
2022/06/27 16:56:23;;;;;;;0.00;0.00;;;32.80;57.10;;;;;;4911869;29;20067;-79
2022/06/27 16:58:49;;;;;;;0.00;0.00;;;32.80;57.10;;;;;;4916538;29;20131;-75
2022/06/27 17:01:15;;;;;;;0.00;0.00;;;32.80;57.30;;;;;;4890217;29;20028;-75
2022/06/27 17:03:40;;;;;;;0.00;0.00;;;32.70;57.30;;;;;;4938070;28;20032;-77
2022/06/27 17:06:06;;;;;;;0.00;0.00;;;32.70;57.40;;;;;;4909370;29;20035;-74
2022/06/27 17:08:32;;;;;;;0.00;0.00;;;32.60;57.50;;;;;;4907609;29;20043;-75
2022/06/27 17:10:58;;;;;;;0.00;0.00;;;32.60;57.60;;;;;;4909371;29;20032;-74
2022/06/27 17:13:25;;;;;;;0.00;0.00;;;32.60;57.70;;;;;;4905266;29;20267;-76
2022/06/27 17:15:51;;;;;;;0.00;0.00;;;32.50;57.80;;;;;;4908923;29;20510;-75
2022/06/27 17:18:17;;;;;;;0.00;0.00;;;32.50;57.90;;;;;;4909064;29;20043;-73
2022/06/27 17:20:42;;;;;;;0.00;0.00;;;32.40;58.10;;;;;;4923292;29;20207;-75
2022/06/27 17:23:09;;;;;;;0.00;0.00;;;32.40;58.00;;;;;;4905527;29;20040;-76
2022/06/27 17:25:35;;;;;;;0.00;0.00;;;32.40;58.30;;;;;;4917629;29;20027;-74
2022/06/27 17:28:01;;;;;;;0.00;0.00;;;32.30;58.40;;;;;;4910902;28;20315;-74
2022/06/27 17:30:27;;;;;;;0.00;0.00;;;32.30;58.60;;;;;;4910197;29;20044;-75
2022/06/27 17:32:53;;;;;;;0.00;0.00;;;32.30;58.70;;;;;;4910566;29;20031;-74
2022/06/27 17:35:19;;;;;;;0.00;0.00;;;32.30;58.90;;;;;;4909285;29;20033;-77
2022/06/27 17:37:45;;;;;;;0.00;0.00;;;32.20;59.00;;;;;;4911762;29;20083;-75
2022/06/27 17:40:12;;;;;;;0.00;0.00;;;32.20;59.10;;;;;;4904019;29;20295;-75
2022/06/27 17:42:37;;;;;;;0.00;0.00;;;32.10;59.20;;;;;;4925390;29;20056;-76
2022/06/27 17:45:04;;;;;;;0.00;0.00;;;32.10;59.20;;;;;;4941681;29;20020;-74
2022/06/27 17:47:30;;;;;;;0.00;0.00;;;32.10;59.50;;;;;;4942201;28;20129;-78
2022/06/27 17:49:56;;;;;;;0.00;0.00;;;32.00;59.50;;;;;;4926591;29;20035;-76
2022/06/27 17:52:21;;;;;;;0.00;0.00;;;32.00;59.70;;;;;;4926097;29;20028;-74
2022/06/27 17:54:47;;;;;;;0.00;0.00;;;31.90;59.80;;;;;;4927446;29;20043;-76
2022/06/27 17:57:13;;;;;;;0.00;0.00;;;31.90;60.00;;;;;;4925016;29;20251;-76
2022/06/27 17:59:39;;;;;;;0.00;0.00;;;31.80;60.20;;;;;;4927917;29;20036;-77
2022/06/27 18:02:05;;;;;;;0.00;0.00;;;31.80;60.30;;;;;;4927277;29;20228;-76
2022/06/27 18:04:31;;;;;;;0.00;0.00;;;31.80;60.60;;;;;;4941793;29;20028;-76
2022/06/27 18:06:57;;;;;;;0.00;0.00;;;31.80;60.50;;;;;;4958287;29;20020;-76
2022/06/27 18:09:22;;;;;;;0.00;0.00;;;31.70;60.50;;;;;;4926616;29;20458;-77
2022/06/27 18:11:49;;;;;;;0.00;0.00;;;31.70;60.80;;;;;;4927883;29;20362;-76
2022/06/27 18:14:16;;;;;;;0.00;0.00;;;31.60;60.70;;;;;;4927316;29;20025;-77
2022/06/27 18:16:41;;;;;;;0.00;0.00;;;31.60;60.90;;;;;;4959617;28;20271;-76
2022/06/27 18:19:07;;;;;;;0.00;0.00;;;31.60;61.00;;;;;;4924279;29;20024;-77
2022/06/27 18:21:33;;;;;;;0.00;0.00;;;31.60;61.00;;;;;;4928016;29;20032;-76
2022/06/27 18:23:59;;;;;;;0.00;0.00;;;31.30;61.00;;;;;;4942078;29;20103;-75
2022/06/27 18:26:26;;;;;;;0.00;0.00;;;31.50;61.40;;;;;;4957563;29;20087;-77
2022/06/27 18:28:51;;;;;;;0.00;0.00;;;31.40;61.40;;;;;;4925547;29;20036;-76
2022/06/27 18:31:19;;;;;;;0.00;0.00;;;31.40;61.50;;;;;;4926779;29;20095;-76
2022/06/27 18:33:44;;;;;;;;;;;31.30;61.60;;;;;;4927928;29;20079;-76
2022/06/27 18:36:10;;;;;;;0.00;0.00;;;31.30;61.70;;;;;;4926656;29;19903;-76
2022/06/27 18:38:36;;;;;;;0.00;0.00;;;31.20;61.90;;;;;;4926512;29;20020;-75
2022/06/27 18:41:01;;;;;;;0.00;0.00;;;31.20;62.10;;;;;;4955722;28;20043;-76
2022/06/27 18:43:27;;;;;;;0.00;0.00;;;31.20;62.40;;;;;;4925822;29;20180;-76
2022/06/27 18:45:53;;;;;;;0.00;0.00;;;31.10;62.50;;;;;;4927347;29;20059;-74
2022/06/27 18:48:19;;;;;;;0.00;0.00;;;31.10;62.80;;;;;;4926593;29;20028;-75
2022/06/27 18:50:45;;;;;;;0.00;0.00;;;31.00;62.80;;;;;;4925379;29;20060;-74